sensor_id;sensor_type;location;lat;lon;timestamp;P1;durP1;ratioP1;P2;durP2;ratioP2
36963;SDS011;22878;48.616;35.326;2022-11-14T00:02:02;13.78;;;4.70;;
36963;SDS011;22878;48.616;35.326;2022-11-14T00:04:28;11.97;;;4.62;;
36963;SDS011;22878;48.616;35.326;2022-11-14T00:06:53;13.45;;;5.37;;
36963;SDS011;22878;48.616;35.326;2022-11-14T00:09:23;13.03;;;4.95;;
36963;SDS011;22878;48.616;35.326;2022-11-14T00:11:50;16.97;;;4.78;;
36963;SDS011;22878;48.616;35.326;2022-11-14T00:14:16;13.58;;;5.35;;
36963;SDS011;22878;48.616;35.326;2022-11-14T00:16:41;14.80;;;5.53;;
36963;SDS011;22878;48.616;35.326;2022-11-14T00:19:07;12.47;;;4.62;;
36963;SDS011;22878;48.616;35.326;2022-11-14T00:21:33;9.23;;;4.50;;
36963;SDS011;22878;48.616;35.326;2022-11-14T00:23:58;16.90;;;5.87;;
36963;SDS011;22878;48.616;35.326;2022-11-14T00:26:24;13.95;;;5.50;;
36963;SDS011;22878;48.616;35.326;2022-11-14T00:28:49;14.83;;;5.20;;
36963;SDS011;22878;48.616;35.326;2022-11-14T00:31:15;12.98;;;4.58;;
36963;SDS011;22878;48.616;35.326;2022-11-14T00:33:41;13.40;;;4.70;;
36963;SDS011;22878;48.616;35.326;2022-11-14T00:36:07;11.95;;;4.30;;
36963;SDS011;22878;48.616;35.326;2022-11-14T00:38:33;15.55;;;4.10;;
36963;SDS011;22878;48.616;35.326;2022-11-14T00:40:58;11.63;;;4.35;;
36963;SDS011;22878;48.616;35.326;2022-11-14T00:43:24;14.47;;;4.72;;
36963;SDS011;22878;48.616;35.326;2022-11-14T00:45:49;9.93;;;4.35;;
36963;SDS011;22878;48.616;35.326;2022-11-14T00:48:15;16.45;;;4.70;;
36963;SDS011;22878;48.616;35.326;2022-11-14T00:50:41;12.23;;;4.58;;
36963;SDS011;22878;48.616;35.326;2022-11-14T00:53:07;10.72;;;4.65;;
36963;SDS011;22878;48.616;35.326;2022-11-14T00:55:33;12.15;;;4.75;;
36963;SDS011;22878;48.616;35.326;2022-11-14T00:57:59;11.55;;;4.22;;
36963;SDS011;22878;48.616;35.326;2022-11-14T01:00:24;13.53;;;3.95;;
36963;SDS011;22878;48.616;35.326;2022-11-14T01:02:50;10.63;;;4.00;;
36963;SDS011;22878;48.616;35.326;2022-11-14T01:05:16;14.05;;;3.95;;
36963;SDS011;22878;48.616;35.326;2022-11-14T01:07:41;9.75;;;4.15;;
36963;SDS011;22878;48.616;35.326;2022-11-14T01:10:07;18.90;;;4.20;;
36963;SDS011;22878;48.616;35.326;2022-11-14T01:12:34;13.88;;;3.83;;
36963;SDS011;22878;48.616;35.326;2022-11-14T01:14:59;11.12;;;4.08;;
36963;SDS011;22878;48.616;35.326;2022-11-14T01:17:25;8.13;;;3.58;;
36963;SDS011;22878;48.616;35.326;2022-11-14T01:19:53;10.98;;;3.77;;
36963;SDS011;22878;48.616;35.326;2022-11-14T01:22:19;10.30;;;4.03;;
36963;SDS011;22878;48.616;35.326;2022-11-14T01:24:44;12.28;;;4.47;;
36963;SDS011;22878;48.616;35.326;2022-11-14T01:27:10;16.35;;;4.53;;
36963;SDS011;22878;48.616;35.326;2022-11-14T01:29:36;10.32;;;3.75;;
36963;SDS011;22878;48.616;35.326;2022-11-14T01:32:01;9.43;;;3.87;;
36963;SDS011;22878;48.616;35.326;2022-11-14T01:34:27;11.90;;;3.80;;
36963;SDS011;22878;48.616;35.326;2022-11-14T01:36:53;12.28;;;4.28;;
36963;SDS011;22878;48.616;35.326;2022-11-14T01:39:19;9.93;;;3.92;;
36963;SDS011;22878;48.616;35.326;2022-11-14T01:41:45;9.13;;;3.55;;
36963;SDS011;22878;48.616;35.326;2022-11-14T01:46:40;13.98;;;4.15;;
36963;SDS011;22878;48.616;35.326;2022-11-14T01:51:46;12.80;;;4.30;;
36963;SDS011;22878;48.616;35.326;2022-11-14T01:54:27;13.98;;;4.53;;
36963;SDS011;22878;48.616;35.326;2022-11-14T01:56:58;12.13;;;4.50;;
36963;SDS011;22878;48.616;35.326;2022-11-14T01:59:29;11.60;;;4.53;;
36963;SDS011;22878;48.616;35.326;2022-11-14T02:01:56;11.73;;;4.60;;
36963;SDS011;22878;48.616;35.326;2022-11-14T02:04:26;14.85;;;4.42;;
36963;SDS011;22878;48.616;35.326;2022-11-14T02:06:56;10.95;;;4.10;;
36963;SDS011;22878;48.616;35.326;2022-11-14T02:09:23;8.30;;;3.52;;
36963;SDS011;22878;48.616;35.326;2022-11-14T02:11:50;8.43;;;3.92;;
36963;SDS011;22878;48.616;35.326;2022-11-14T02:14:17;14.65;;;3.75;;
36963;SDS011;22878;48.616;35.326;2022-11-14T02:16:43;12.63;;;4.17;;
36963;SDS011;22878;48.616;35.326;2022-11-14T02:19:09;11.00;;;3.95;;
36963;SDS011;22878;48.616;35.326;2022-11-14T02:21:34;13.35;;;4.15;;
36963;SDS011;22878;48.616;35.326;2022-11-14T02:24:00;11.33;;;4.00;;
36963;SDS011;22878;48.616;35.326;2022-11-14T02:26:26;10.15;;;3.92;;
36963;SDS011;22878;48.616;35.326;2022-11-14T02:28:51;9.38;;;3.98;;
36963;SDS011;22878;48.616;35.326;2022-11-14T02:31:17;10.72;;;3.58;;
36963;SDS011;22878;48.616;35.326;2022-11-14T02:33:43;25.32;;;5.12;;
36963;SDS011;22878;48.616;35.326;2022-11-14T02:36:09;10.75;;;3.80;;
36963;SDS011;22878;48.616;35.326;2022-11-14T02:38:34;10.45;;;3.90;;
36963;SDS011;22878;48.616;35.326;2022-11-14T02:41:00;14.28;;;4.65;;
36963;SDS011;22878;48.616;35.326;2022-11-14T02:43:26;11.10;;;4.05;;
36963;SDS011;22878;48.616;35.326;2022-11-14T02:45:52;12.53;;;4.35;;
36963;SDS011;22878;48.616;35.326;2022-11-14T02:48:18;14.07;;;3.92;;
36963;SDS011;22878;48.616;35.326;2022-11-14T02:50:43;13.90;;;4.10;;
36963;SDS011;22878;48.616;35.326;2022-11-14T02:53:09;17.80;;;4.60;;
36963;SDS011;22878;48.616;35.326;2022-11-14T02:55:34;14.38;;;3.90;;
36963;SDS011;22878;48.616;35.326;2022-11-14T02:58:00;9.98;;;3.72;;
36963;SDS011;22878;48.616;35.326;2022-11-14T03:00:26;15.93;;;4.37;;
36963;SDS011;22878;48.616;35.326;2022-11-14T03:02:52;12.20;;;4.17;;
36963;SDS011;22878;48.616;35.326;2022-11-14T03:05:18;13.10;;;4.10;;
36963;SDS011;22878;48.616;35.326;2022-11-14T03:07:44;11.63;;;4.10;;
36963;SDS011;22878;48.616;35.326;2022-11-14T03:10:10;10.32;;;3.62;;
36963;SDS011;22878;48.616;35.326;2022-11-14T03:12:38;9.80;;;3.85;;
36963;SDS011;22878;48.616;35.326;2022-11-14T03:15:04;9.13;;;3.70;;
36963;SDS011;22878;48.616;35.326;2022-11-14T03:17:31;9.70;;;3.83;;
36963;SDS011;22878;48.616;35.326;2022-11-14T03:19:58;13.25;;;3.45;;
36963;SDS011;22878;48.616;35.326;2022-11-14T03:22:24;10.13;;;3.65;;
36963;SDS011;22878;48.616;35.326;2022-11-14T03:24:51;9.08;;;3.20;;
36963;SDS011;22878;48.616;35.326;2022-11-14T03:27:16;8.63;;;3.40;;
36963;SDS011;22878;48.616;35.326;2022-11-14T03:29:42;8.60;;;3.62;;
36963;SDS011;22878;48.616;35.326;2022-11-14T03:32:08;8.45;;;3.08;;
36963;SDS011;22878;48.616;35.326;2022-11-14T03:34:34;8.85;;;3.15;;
36963;SDS011;22878;48.616;35.326;2022-11-14T03:36:59;8.68;;;3.47;;
36963;SDS011;22878;48.616;35.326;2022-11-14T03:39:25;7.30;;;3.10;;
36963;SDS011;22878;48.616;35.326;2022-11-14T03:41:51;9.28;;;3.12;;
36963;SDS011;22878;48.616;35.326;2022-11-14T03:44:17;8.25;;;3.62;;
36963;SDS011;22878;48.616;35.326;2022-11-14T03:46:43;10.60;;;3.85;;
36963;SDS011;22878;48.616;35.326;2022-11-14T03:49:08;9.85;;;3.75;;
36963;SDS011;22878;48.616;35.326;2022-11-14T03:51:34;15.35;;;4.95;;
36963;SDS011;22878;48.616;35.326;2022-11-14T03:54:00;10.18;;;3.50;;
36963;SDS011;22878;48.616;35.326;2022-11-14T03:56:25;7.97;;;3.47;;
36963;SDS011;22878;48.616;35.326;2022-11-14T03:58:51;10.68;;;4.65;;
36963;SDS011;22878;48.616;35.326;2022-11-14T04:01:17;11.97;;;4.40;;
36963;SDS011;22878;48.616;35.326;2022-11-14T04:03:42;12.63;;;4.20;;
36963;SDS011;22878;48.616;35.326;2022-11-14T04:06:08;10.43;;;3.70;;
36963;SDS011;22878;48.616;35.326;2022-11-14T04:08:34;13.65;;;4.37;;
36963;SDS011;22878;48.616;35.326;2022-11-14T04:10:59;13.35;;;3.77;;
36963;SDS011;22878;48.616;35.326;2022-11-14T04:13:25;7.47;;;3.50;;
36963;SDS011;22878;48.616;35.326;2022-11-14T04:15:54;12.03;;;3.58;;
36963;SDS011;22878;48.616;35.326;2022-11-14T04:18:21;7.33;;;3.60;;
36963;SDS011;22878;48.616;35.326;2022-11-14T04:20:47;8.03;;;3.25;;
36963;SDS011;22878;48.616;35.326;2022-11-14T04:23:13;12.40;;;3.22;;
36963;SDS011;22878;48.616;35.326;2022-11-14T04:25:38;7.30;;;3.12;;
36963;SDS011;22878;48.616;35.326;2022-11-14T04:28:04;6.67;;;3.05;;
36963;SDS011;22878;48.616;35.326;2022-11-14T04:30:29;10.78;;;3.55;;
36963;SDS011;22878;48.616;35.326;2022-11-14T04:32:55;14.20;;;3.37;;
36963;SDS011;22878;48.616;35.326;2022-11-14T04:35:21;8.85;;;3.10;;
36963;SDS011;22878;48.616;35.326;2022-11-14T04:37:46;8.15;;;2.87;;
36963;SDS011;22878;48.616;35.326;2022-11-14T04:40:12;11.85;;;3.30;;
36963;SDS011;22878;48.616;35.326;2022-11-14T04:42:38;9.80;;;3.72;;
36963;SDS011;22878;48.616;35.326;2022-11-14T04:45:04;9.18;;;3.27;;
36963;SDS011;22878;48.616;35.326;2022-11-14T04:47:31;9.65;;;2.95;;
36963;SDS011;22878;48.616;35.326;2022-11-14T04:49:57;11.63;;;3.33;;
36963;SDS011;22878;48.616;35.326;2022-11-14T04:52:22;10.00;;;3.45;;
36963;SDS011;22878;48.616;35.326;2022-11-14T04:54:48;10.75;;;3.30;;
36963;SDS011;22878;48.616;35.326;2022-11-14T04:57:14;8.08;;;3.33;;
36963;SDS011;22878;48.616;35.326;2022-11-14T04:59:41;10.25;;;3.75;;
36963;SDS011;22878;48.616;35.326;2022-11-14T05:02:07;13.48;;;4.10;;
36963;SDS011;22878;48.616;35.326;2022-11-14T05:04:33;11.80;;;3.72;;
36963;SDS011;22878;48.616;35.326;2022-11-14T05:06:58;12.55;;;4.10;;
36963;SDS011;22878;48.616;35.326;2022-11-14T05:09:24;14.50;;;3.98;;
36963;SDS011;22878;48.616;35.326;2022-11-14T05:11:50;17.05;;;3.70;;
36963;SDS011;22878;48.616;35.326;2022-11-14T05:14:16;10.13;;;3.77;;
36963;SDS011;22878;48.616;35.326;2022-11-14T05:16:41;11.43;;;3.95;;
36963;SDS011;22878;48.616;35.326;2022-11-14T05:19:07;14.45;;;4.00;;
36963;SDS011;22878;48.616;35.326;2022-11-14T05:21:33;12.18;;;4.10;;
36963;SDS011;22878;48.616;35.326;2022-11-14T05:23:59;15.80;;;4.53;;
36963;SDS011;22878;48.616;35.326;2022-11-14T05:26:24;15.63;;;4.20;;
36963;SDS011;22878;48.616;35.326;2022-11-14T05:28:50;13.90;;;4.45;;
36963;SDS011;22878;48.616;35.326;2022-11-14T05:31:16;14.95;;;3.87;;
36963;SDS011;22878;48.616;35.326;2022-11-14T05:33:44;13.62;;;3.60;;
36963;SDS011;22878;48.616;35.326;2022-11-14T05:36:14;10.70;;;3.33;;
36963;SDS011;22878;48.616;35.326;2022-11-14T05:38:41;12.90;;;3.98;;
36963;SDS011;22878;48.616;35.326;2022-11-14T05:41:07;7.10;;;3.10;;
36963;SDS011;22878;48.616;35.326;2022-11-14T05:43:34;8.30;;;3.33;;
36963;SDS011;22878;48.616;35.326;2022-11-14T05:46:01;9.55;;;3.55;;
36963;SDS011;22878;48.616;35.326;2022-11-14T05:48:28;10.23;;;3.98;;
36963;SDS011;22878;48.616;35.326;2022-11-14T05:50:58;7.85;;;3.55;;
36963;SDS011;22878;48.616;35.326;2022-11-14T05:53:25;8.48;;;3.02;;
36963;SDS011;22878;48.616;35.326;2022-11-14T05:55:52;7.05;;;3.02;;
36963;SDS011;22878;48.616;35.326;2022-11-14T05:58:19;12.25;;;3.70;;
36963;SDS011;22878;48.616;35.326;2022-11-14T06:00:46;9.18;;;3.30;;
36963;SDS011;22878;48.616;35.326;2022-11-14T06:03:12;7.12;;;3.50;;
36963;SDS011;22878;48.616;35.326;2022-11-14T06:05:39;5.30;;;3.08;;
36963;SDS011;22878;48.616;35.326;2022-11-14T06:08:04;9.03;;;3.30;;
36963;SDS011;22878;48.616;35.326;2022-11-14T06:10:30;9.63;;;3.05;;
36963;SDS011;22878;48.616;35.326;2022-11-14T06:12:56;5.87;;;2.75;;
36963;SDS011;22878;48.616;35.326;2022-11-14T06:15:21;7.10;;;2.90;;
36963;SDS011;22878;48.616;35.326;2022-11-14T06:17:47;7.10;;;2.80;;
36963;SDS011;22878;48.616;35.326;2022-11-14T06:20:13;6.55;;;2.47;;
36963;SDS011;22878;48.616;35.326;2022-11-14T06:22:40;4.67;;;2.75;;
36963;SDS011;22878;48.616;35.326;2022-11-14T06:25:06;4.10;;;2.60;;
36963;SDS011;22878;48.616;35.326;2022-11-14T06:27:33;4.50;;;2.40;;
36963;SDS011;22878;48.616;35.326;2022-11-14T06:29:58;9.05;;;2.37;;
36963;SDS011;22878;48.616;35.326;2022-11-14T06:32:24;6.00;;;2.55;;
36963;SDS011;22878;48.616;35.326;2022-11-14T06:34:50;3.55;;;2.30;;
36963;SDS011;22878;48.616;35.326;2022-11-14T06:37:15;4.42;;;2.20;;
36963;SDS011;22878;48.616;35.326;2022-11-14T06:39:41;7.42;;;2.22;;
36963;SDS011;22878;48.616;35.326;2022-11-14T06:42:07;6.37;;;2.33;;
36963;SDS011;22878;48.616;35.326;2022-11-14T06:44:32;4.42;;;2.27;;
36963;SDS011;22878;48.616;35.326;2022-11-14T06:46:58;4.30;;;2.52;;
36963;SDS011;22878;48.616;35.326;2022-11-14T06:49:24;3.62;;;1.90;;
36963;SDS011;22878;48.616;35.326;2022-11-14T06:51:51;4.50;;;2.00;;
36963;SDS011;22878;48.616;35.326;2022-11-14T06:54:17;3.08;;;2.12;;
36963;SDS011;22878;48.616;35.326;2022-11-14T06:56:43;6.17;;;2.45;;
36963;SDS011;22878;48.616;35.326;2022-11-14T06:59:09;3.83;;;2.10;;
36963;SDS011;22878;48.616;35.326;2022-11-14T07:01:35;2.70;;;2.10;;
36963;SDS011;22878;48.616;35.326;2022-11-14T07:04:02;2.37;;;2.08;;
36963;SDS011;22878;48.616;35.326;2022-11-14T07:06:28;3.55;;;2.35;;
36963;SDS011;22878;48.616;35.326;2022-11-14T07:08:55;2.90;;;2.08;;
36963;SDS011;22878;48.616;35.326;2022-11-14T07:11:22;2.90;;;2.05;;
36963;SDS011;22878;48.616;35.326;2022-11-14T07:16:26;3.58;;;2.15;;
36963;SDS011;22878;48.616;35.326;2022-11-14T07:18:56;2.73;;;2.30;;
36963;SDS011;22878;48.616;35.326;2022-11-14T07:21:22;2.70;;;1.80;;
36963;SDS011;22878;48.616;35.326;2022-11-14T07:23:49;2.92;;;2.30;;
36963;SDS011;22878;48.616;35.326;2022-11-14T07:26:15;4.45;;;2.30;;
36963;SDS011;22878;48.616;35.326;2022-11-14T07:28:42;2.70;;;2.10;;
36963;SDS011;22878;48.616;35.326;2022-11-14T07:31:09;2.10;;;1.90;;
36963;SDS011;22878;48.616;35.326;2022-11-14T07:33:37;4.67;;;2.47;;
36963;SDS011;22878;48.616;35.326;2022-11-14T07:36:03;5.05;;;2.40;;
36963;SDS011;22878;48.616;35.326;2022-11-14T07:38:30;4.53;;;2.33;;
36963;SDS011;22878;48.616;35.326;2022-11-14T07:40:57;2.90;;;2.15;;
36963;SDS011;22878;48.616;35.326;2022-11-14T07:43:24;3.65;;;2.62;;
36963;SDS011;22878;48.616;35.326;2022-11-14T07:45:50;4.35;;;2.70;;
36963;SDS011;22878;48.616;35.326;2022-11-14T07:48:17;4.20;;;2.45;;
36963;SDS011;22878;48.616;35.326;2022-11-14T07:50:43;5.00;;;2.77;;
36963;SDS011;22878;48.616;35.326;2022-11-14T07:53:09;4.15;;;2.67;;
36963;SDS011;22878;48.616;35.326;2022-11-14T07:55:35;7.42;;;2.65;;
36963;SDS011;22878;48.616;35.326;2022-11-14T07:58:01;4.53;;;2.90;;
36963;SDS011;22878;48.616;35.326;2022-11-14T08:00:27;3.37;;;2.37;;
36963;SDS011;22878;48.616;35.326;2022-11-14T08:02:53;3.10;;;2.72;;
36963;SDS011;22878;48.616;35.326;2022-11-14T08:05:19;6.00;;;2.95;;
36963;SDS011;22878;48.616;35.326;2022-11-14T08:07:45;4.78;;;3.00;;
36963;SDS011;22878;48.616;35.326;2022-11-14T08:10:11;3.42;;;2.65;;
36963;SDS011;22878;48.616;35.326;2022-11-14T08:12:38;2.37;;;2.17;;
36963;SDS011;22878;48.616;35.326;2022-11-14T08:15:08;5.00;;;2.00;;
36963;SDS011;22878;48.616;35.326;2022-11-14T08:17:36;3.80;;;1.67;;
36963;SDS011;22878;48.616;35.326;2022-11-14T08:20:02;1.40;;;1.30;;
36963;SDS011;22878;48.616;35.326;2022-11-14T08:22:29;2.08;;;1.27;;
36963;SDS011;22878;48.616;35.326;2022-11-14T08:24:55;2.87;;;1.30;;
36963;SDS011;22878;48.616;35.326;2022-11-14T08:27:21;3.58;;;1.37;;
36963;SDS011;22878;48.616;35.326;2022-11-14T08:29:47;3.15;;;1.42;;
36963;SDS011;22878;48.616;35.326;2022-11-14T08:32:14;2.25;;;1.10;;
36963;SDS011;22878;48.616;35.326;2022-11-14T08:34:40;5.25;;;1.05;;
36963;SDS011;22878;48.616;35.326;2022-11-14T08:37:06;3.70;;;1.22;;
36963;SDS011;22878;48.616;35.326;2022-11-14T08:39:32;4.53;;;1.35;;
36963;SDS011;22878;48.616;35.326;2022-11-14T08:41:58;4.08;;;1.12;;
36963;SDS011;22878;48.616;35.326;2022-11-14T08:44:23;6.58;;;1.60;;
36963;SDS011;22878;48.616;35.326;2022-11-14T08:46:49;3.70;;;1.15;;
36963;SDS011;22878;48.616;35.326;2022-11-14T08:49:15;6.05;;;1.30;;
36963;SDS011;22878;48.616;35.326;2022-11-14T08:51:41;2.25;;;0.95;;
36963;SDS011;22878;48.616;35.326;2022-11-14T08:54:06;2.98;;;1.30;;
36963;SDS011;22878;48.616;35.326;2022-11-14T08:56:32;4.05;;;1.52;;
36963;SDS011;22878;48.616;35.326;2022-11-14T08:58:58;2.58;;;1.00;;
36963;SDS011;22878;48.616;35.326;2022-11-14T09:01:29;4.03;;;1.20;;
36963;SDS011;22878;48.616;35.326;2022-11-14T09:03:56;2.52;;;1.27;;
36963;SDS011;22878;48.616;35.326;2022-11-14T09:06:23;5.28;;;1.00;;
36963;SDS011;22878;48.616;35.326;2022-11-14T09:08:49;4.45;;;0.82;;
36963;SDS011;22878;48.616;35.326;2022-11-14T09:11:14;3.20;;;1.07;;
36963;SDS011;22878;48.616;35.326;2022-11-14T09:13:40;2.67;;;0.80;;
36963;SDS011;22878;48.616;35.326;2022-11-14T09:16:06;3.00;;;1.07;;
36963;SDS011;22878;48.616;35.326;2022-11-14T09:18:32;7.00;;;1.35;;
36963;SDS011;22878;48.616;35.326;2022-11-14T09:20:59;7.50;;;1.85;;
36963;SDS011;22878;48.616;35.326;2022-11-14T09:23:32;4.28;;;1.47;;
36963;SDS011;22878;48.616;35.326;2022-11-14T09:26:01;3.02;;;1.20;;
36963;SDS011;22878;48.616;35.326;2022-11-14T09:28:29;6.80;;;1.32;;
36963;SDS011;22878;48.616;35.326;2022-11-14T09:31:02;2.22;;;1.07;;
36963;SDS011;22878;48.616;35.326;2022-11-14T09:33:31;1.95;;;0.90;;
36963;SDS011;22878;48.616;35.326;2022-11-14T09:35:58;3.52;;;0.82;;
36963;SDS011;22878;48.616;35.326;2022-11-14T09:38:25;1.85;;;0.95;;
36963;SDS011;22878;48.616;35.326;2022-11-14T09:46:52;2.27;;;0.90;;
36963;SDS011;22878;48.616;35.326;2022-11-14T09:49:28;3.20;;;0.80;;
36963;SDS011;22878;48.616;35.326;2022-11-14T09:57:15;4.57;;;0.90;;
36963;SDS011;22878;48.616;35.326;2022-11-14T09:59:42;4.05;;;1.30;;
36963;SDS011;22878;48.616;35.326;2022-11-14T10:05:12;6.65;;;0.90;;
36963;SDS011;22878;48.616;35.326;2022-11-14T10:21:57;7.05;;;1.12;;
36963;SDS011;22878;48.616;35.326;2022-11-14T10:24:38;1.77;;;0.90;;
36963;SDS011;22878;48.616;35.326;2022-11-14T10:35:24;3.83;;;0.90;;
36963;SDS011;22878;48.616;35.326;2022-11-14T10:43:28;3.67;;;1.30;;
36963;SDS011;22878;48.616;35.326;2022-11-14T10:46:01;2.90;;;0.98;;
36963;SDS011;22878;48.616;35.326;2022-11-14T10:48:35;4.70;;;0.80;;
36963;SDS011;22878;48.616;35.326;2022-11-14T10:56:19;3.08;;;0.80;;
36963;SDS011;22878;48.616;35.326;2022-11-14T10:58:45;1.25;;;0.70;;
36963;SDS011;22878;48.616;35.326;2022-11-14T11:03:56;4.58;;;0.90;;
36963;SDS011;22878;48.616;35.326;2022-11-14T11:06:25;2.75;;;0.70;;
36963;SDS011;22878;48.616;35.326;2022-11-14T11:08:52;4.30;;;1.45;;
36963;SDS011;22878;48.616;35.326;2022-11-14T11:14:13;2.55;;;0.90;;
36963;SDS011;22878;48.616;35.326;2022-11-14T11:16:34;2.83;;;0.88;;
36963;SDS011;22878;48.616;35.326;2022-11-14T11:21:48;3.22;;;0.88;;
36963;SDS011;22878;48.616;35.326;2022-11-14T11:29:33;2.55;;;0.95;;
36963;SDS011;22878;48.616;35.326;2022-11-14T11:31:59;1.55;;;0.60;;
36963;SDS011;22878;48.616;35.326;2022-11-14T11:34:29;3.05;;;1.10;;
36963;SDS011;22878;48.616;35.326;2022-11-14T11:39:37;2.85;;;1.07;;
36963;SDS011;22878;48.616;35.326;2022-11-14T11:42:05;2.58;;;0.95;;
36963;SDS011;22878;48.616;35.326;2022-11-14T11:44:34;3.35;;;1.07;;
36963;SDS011;22878;48.616;35.326;2022-11-14T11:47:02;3.22;;;1.12;;
36963;SDS011;22878;48.616;35.326;2022-11-14T11:52:03;2.70;;;1.00;;
36963;SDS011;22878;48.616;35.326;2022-11-14T11:54:52;4.85;;;1.32;;
36963;SDS011;22878;48.616;35.326;2022-11-14T11:57:22;4.55;;;1.12;;
36963;SDS011;22878;48.616;35.326;2022-11-14T11:59:50;6.08;;;1.00;;
36963;SDS011;22878;48.616;35.326;2022-11-14T12:02:26;3.95;;;1.20;;
36963;SDS011;22878;48.616;35.326;2022-11-14T12:04:53;2.90;;;1.20;;
36963;SDS011;22878;48.616;35.326;2022-11-14T12:07:21;3.12;;;1.30;;
36963;SDS011;22878;48.616;35.326;2022-11-14T12:15:32;1.92;;;0.90;;
36963;SDS011;22878;48.616;35.326;2022-11-14T12:18:29;1.87;;;1.02;;
36963;SDS011;22878;48.616;35.326;2022-11-14T12:21:11;2.62;;;0.88;;
36963;SDS011;22878;48.616;35.326;2022-11-14T12:32:18;3.05;;;1.40;;
36963;SDS011;22878;48.616;35.326;2022-11-14T12:34:46;5.80;;;1.32;;
36963;SDS011;22878;48.616;35.326;2022-11-14T12:37:17;4.70;;;1.90;;
36963;SDS011;22878;48.616;35.326;2022-11-14T12:39:55;10.13;;;2.22;;
36963;SDS011;22878;48.616;35.326;2022-11-14T12:42:24;5.70;;;1.90;;
36963;SDS011;22878;48.616;35.326;2022-11-14T12:44:50;6.72;;;2.33;;
36963;SDS011;22878;48.616;35.326;2022-11-14T13:00:30;2.65;;;1.35;;
36963;SDS011;22878;48.616;35.326;2022-11-14T13:05:52;4.55;;;1.42;;
36963;SDS011;22878;48.616;35.326;2022-11-14T13:14:19;8.05;;;1.85;;
36963;SDS011;22878;48.616;35.326;2022-11-14T13:20:01;4.75;;;1.30;;
36963;SDS011;22878;48.616;35.326;2022-11-14T13:22:48;5.12;;;1.75;;
36963;SDS011;22878;48.616;35.326;2022-11-14T13:25:14;6.83;;;2.15;;
36963;SDS011;22878;48.616;35.326;2022-11-14T13:27:42;6.83;;;1.72;;
36963;SDS011;22878;48.616;35.326;2022-11-14T13:30:07;6.35;;;2.20;;
36963;SDS011;22878;48.616;35.326;2022-11-14T13:35:15;7.45;;;2.25;;
36963;SDS011;22878;48.616;35.326;2022-11-14T13:49:23;7.25;;;1.87;;
36963;SDS011;22878;48.616;35.326;2022-11-14T13:54:29;7.10;;;1.67;;
36963;SDS011;22878;48.616;35.326;2022-11-14T13:57:04;4.25;;;1.67;;
36963;SDS011;22878;48.616;35.326;2022-11-14T14:04:57;5.25;;;1.70;;
36963;SDS011;22878;48.616;35.326;2022-11-14T14:15:33;6.97;;;2.00;;
36963;SDS011;22878;48.616;35.326;2022-11-14T14:18:27;12.33;;;3.00;;
36963;SDS011;22878;48.616;35.326;2022-11-14T14:23:45;20.50;;;5.60;;
36963;SDS011;22878;48.616;35.326;2022-11-14T14:31:43;32.28;;;7.20;;
36963;SDS011;22878;48.616;35.326;2022-11-14T14:36:53;27.20;;;6.87;;
36963;SDS011;22878;48.616;35.326;2022-11-14T14:39:23;24.60;;;6.67;;
36963;SDS011;22878;48.616;35.326;2022-11-14T14:41:51;21.85;;;6.45;;
36963;SDS011;22878;48.616;35.326;2022-11-14T14:44:20;18.35;;;5.60;;
36963;SDS011;22878;48.616;35.326;2022-11-14T14:46:54;20.70;;;6.85;;
36963;SDS011;22878;48.616;35.326;2022-11-14T14:51:49;35.48;;;7.28;;
36963;SDS011;22878;48.616;35.326;2022-11-14T14:54:18;30.17;;;7.62;;
36963;SDS011;22878;48.616;35.326;2022-11-14T14:56:52;28.25;;;7.55;;
36963;SDS011;22878;48.616;35.326;2022-11-14T14:59:23;30.92;;;7.75;;
36963;SDS011;22878;48.616;35.326;2022-11-14T15:01:49;34.23;;;7.87;;
36963;SDS011;22878;48.616;35.326;2022-11-14T15:04:15;27.73;;;7.85;;
36963;SDS011;22878;48.616;35.326;2022-11-14T15:06:43;35.43;;;8.85;;
36963;SDS011;22878;48.616;35.326;2022-11-14T15:11:45;39.42;;;7.60;;
36963;SDS011;22878;48.616;35.326;2022-11-14T15:14:13;38.98;;;7.03;;
36963;SDS011;22878;48.616;35.326;2022-11-14T15:16:41;23.98;;;6.58;;
36963;SDS011;22878;48.616;35.326;2022-11-14T15:19:10;31.87;;;7.22;;
36963;SDS011;22878;48.616;35.326;2022-11-14T15:21:38;35.60;;;7.47;;
36963;SDS011;22878;48.616;35.326;2022-11-14T15:26:45;35.83;;;9.03;;
36963;SDS011;22878;48.616;35.326;2022-11-14T15:34:23;30.55;;;8.90;;
36963;SDS011;22878;48.616;35.326;2022-11-14T15:39:42;32.23;;;7.65;;
36963;SDS011;22878;48.616;35.326;2022-11-14T15:42:11;30.20;;;9.15;;
36963;SDS011;22878;48.616;35.326;2022-11-14T15:44:51;36.75;;;8.93;;
36963;SDS011;22878;48.616;35.326;2022-11-14T15:47:33;37.60;;;9.43;;
36963;SDS011;22878;48.616;35.326;2022-11-14T15:55:18;28.45;;;9.08;;
36963;SDS011;22878;48.616;35.326;2022-11-14T15:57:45;33.40;;;10.08;;
36963;SDS011;22878;48.616;35.326;2022-11-14T16:00:11;36.68;;;11.18;;
36963;SDS011;22878;48.616;35.326;2022-11-14T16:02:40;36.42;;;12.18;;
36963;SDS011;22878;48.616;35.326;2022-11-14T16:05:08;43.13;;;13.55;;
36963;SDS011;22878;48.616;35.326;2022-11-14T16:07:36;43.28;;;13.55;;
36963;SDS011;22878;48.616;35.326;2022-11-14T16:10:02;44.55;;;13.35;;
36963;SDS011;22878;48.616;35.326;2022-11-14T16:12:27;45.95;;;14.55;;
36963;SDS011;22878;48.616;35.326;2022-11-14T16:14:53;49.23;;;15.48;;
36963;SDS011;22878;48.616;35.326;2022-11-14T16:17:19;46.60;;;13.90;;
36963;SDS011;22878;48.616;35.326;2022-11-14T16:19:45;49.80;;;14.13;;
36963;SDS011;22878;48.616;35.326;2022-11-14T16:22:12;37.63;;;13.68;;
36963;SDS011;22878;48.616;35.326;2022-11-14T16:24:40;44.80;;;13.35;;
36963;SDS011;22878;48.616;35.326;2022-11-14T16:27:13;43.78;;;13.50;;
36963;SDS011;22878;48.616;35.326;2022-11-14T16:29:39;44.13;;;13.25;;
36963;SDS011;22878;48.616;35.326;2022-11-14T16:32:07;38.38;;;12.50;;
36963;SDS011;22878;48.616;35.326;2022-11-14T16:34:34;45.28;;;14.05;;
36963;SDS011;22878;48.616;35.326;2022-11-14T16:37:00;36.55;;;11.85;;
36963;SDS011;22878;48.616;35.326;2022-11-14T16:39:26;42.20;;;13.03;;
36963;SDS011;22878;48.616;35.326;2022-11-14T16:41:55;38.10;;;12.40;;
36963;SDS011;22878;48.616;35.326;2022-11-14T16:44:22;34.05;;;11.68;;
36963;SDS011;22878;48.616;35.326;2022-11-14T16:46:48;39.90;;;11.40;;
36963;SDS011;22878;48.616;35.326;2022-11-14T16:49:15;37.63;;;10.63;;
36963;SDS011;22878;48.616;35.326;2022-11-14T16:51:42;33.10;;;10.63;;
36963;SDS011;22878;48.616;35.326;2022-11-14T16:54:12;34.80;;;10.60;;
36963;SDS011;22878;48.616;35.326;2022-11-14T16:56:40;30.52;;;10.55;;
36963;SDS011;22878;48.616;35.326;2022-11-14T16:59:07;33.85;;;10.30;;
36963;SDS011;22878;48.616;35.326;2022-11-14T17:01:33;30.88;;;9.70;;
36963;SDS011;22878;48.616;35.326;2022-11-14T17:03:59;36.73;;;10.48;;
36963;SDS011;22878;48.616;35.326;2022-11-14T17:06:28;37.35;;;10.28;;
36963;SDS011;22878;48.616;35.326;2022-11-14T17:11:22;34.15;;;10.55;;
36963;SDS011;22878;48.616;35.326;2022-11-14T17:13:48;40.67;;;10.82;;
36963;SDS011;22878;48.616;35.326;2022-11-14T17:16:14;42.83;;;12.07;;
36963;SDS011;22878;48.616;35.326;2022-11-14T17:18:40;35.52;;;11.55;;
36963;SDS011;22878;48.616;35.326;2022-11-14T17:21:06;33.67;;;10.58;;
36963;SDS011;22878;48.616;35.326;2022-11-14T17:23:33;37.40;;;10.78;;
36963;SDS011;22878;48.616;35.326;2022-11-14T17:26:02;32.85;;;9.63;;